Latest Weather Observations for Moss Vale

IDN60801

Issued at 11:35 am EST Friday 1 August 2014 (issued every 30 minutes, with the page automatically refreshed every 10 minutes)

About weather observations | Map of weather stations | Latest weather observations for NSW | Other Formats
Station Details ID: 068239 Name: MOSS VALE AWS Lat: -34.53 Lon: 150.42 Height: 678.4 m
Data from the previous 72 hours. | See also: Recent months at Moss Vale
Date/Time
EST
Temp
°C
App
Temp
°C
Dew
Point
Rel
Hum
%
Delta-T
°C
Wind Press
QNH
hPa
Press
MSL
hPa
Rain
since 9 am
mm
Dir
 
Spd
km/h
Gust
km/h
Spd
kts
Gust
kts
01/11:30am 6.3 -4.5 -5.6 42 4.2 WSW 43 61 23 33 1007.6 - 0.0
01/11:00am 6.8 -5.3 -4.9 43 4.2 WSW 50 67 27 36 1007.5 1007.8 0.0
01/10:30am 7.3 -1.7 -2.4 50 3.7 WSW 35 54 19 29 1007.5 - 0.0
01/10:00am 6.8 -2.4 -1.6 55 3.3 WSW 37 57 20 31 1007.5 1007.8 0.0
01/09:30am 6.8 -2.8 -1.6 55 3.3 W 39 61 21 33 1006.9 - 0.0
01/09:00am 6.9 -1.8 -0.3 60 2.9 W 35 52 19 28 1006.7 1007.3 0.0
01/08:30am 7.3 -0.4 0.1 60 2.9 W 30 46 16 25 1006.9 - 0.0
01/08:00am 6.9 0.2 1.2 67 2.4 W 26 41 14 22 1007.0 1007.6 0.0
01/07:30am 6.9 -1.4 2.2 72 2.0 WSW 35 50 19 27 1006.5 - 0.0
01/07:00am 7.5 1.4 2.8 72 2.1 W 24 35 13 19 1006.3 1006.9 0.0
01/06:30am 7.7 0.8 2.8 71 2.1 W 28 39 15 21 1006.1 - 0.0
01/06:00am 7.5 -0.3 2.6 71 2.1 W 33 50 18 27 1005.6 1006.1 0.0
01/05:30am 8.1 0.3 2.6 68 2.4 W 33 54 18 29 1005.3 - 0.0
01/05:00am 8.9 0.6 2.3 63 2.9 W 35 50 19 27 1004.7 1005.3 0.0
01/04:30am 10.0 1.3 -0.8 47 4.4 W 35 54 19 29 1004.4 - 0.0
01/04:00am 11.5 2.6 -2.3 38 5.6 WSW 35 50 19 27 1004.1 1004.6 0.0
01/03:30am 12.8 4.7 -3.0 33 6.4 W 30 44 16 24 1004.1 - 0.0
01/03:00am 14.1 4.6 -3.6 29 7.2 W 37 46 20 25 1003.9 1004.4 0.0
01/02:30am 14.3 5.7 -4.4 27 7.4 NW 32 56 17 30 1003.6 - 0.0
01/02:00am 14.3 5.1 -4.4 27 7.5 WNW 35 52 19 28 1003.9 1004.4 0.0
01/01:30am 14.3 4.7 -4.4 27 7.4 WNW 37 56 20 30 1004.0 - 0.0
01/01:00am 14.4 4.8 -4.3 27 7.5 WNW 37 56 20 30 1004.1 1004.6 0.0
01/12:30am 14.3 5.1 -4.4 27 7.4 WNW 35 57 19 31 1004.5 - 0.0
01/12:00am 14.3 5.2 -3.9 28 7.3 NW 35 59 19 32 1004.8 1005.4 0.0
 
Date/Time
EST
Temp
°C
App
Temp
°C
Dew
Point
Rel
Hum
%
Delta-T
°C
Wind Press
QNH
hPa
Press
MSL
hPa
Rain
since 9 am
mm
Dir
 
Spd
km/h
Gust
km/h
Spd
kts
Gust
kts
31/11:30pm 14.4 5.3 -3.4 29 7.2 NW 35 59 19 32 1005.1 - 0.0
31/11:00pm 14.3 4.4 -3.5 29 7.2 NW 39 61 21 33 1005.5 1006.0 0.0
31/10:30pm 14.6 4.8 -3.2 29 7.3 NW 39 65 21 35 1005.5 - 0.0
31/10:00pm 14.5 5.1 -2.8 30 7.2 NW 37 59 20 32 1005.6 1006.1 0.0
31/09:30pm 14.1 5.5 -2.8 31 6.9 NW 33 50 18 27 1005.5 - 0.0
31/09:00pm 14.2 4.9 -2.2 32 6.9 NW 37 52 20 28 1005.3 1005.8 0.0
31/08:30pm 14.2 4.9 -1.8 33 6.7 NW 37 56 20 30 1005.4 - 0.0
31/08:00pm 14.5 4.6 -1.2 34 6.7 NW 41 54 22 29 1005.3 1005.8 0.0
31/07:30pm 14.2 5.4 -1.0 35 6.5 NW 35 54 19 29 1005.4 - 0.0
31/07:00pm 14.6 5.4 -1.1 34 6.7 NW 37 57 20 31 1005.6 1006.1 0.0
31/06:30pm 14.7 5.8 -1.8 32 7.0 NW 35 56 19 30 1005.5 - 0.0
31/06:00pm 14.6 6.1 -1.9 32 7.0 NW 33 48 18 26 1005.9 1006.5 0.0
31/05:30pm 15.7 6.9 -1.4 31 7.3 NW 35 50 19 27 1005.8 - 0.0
31/05:00pm 16.5 7.1 -2.5 27 8.1 NW 37 54 20 29 1006.0 1006.6 0.0
31/04:30pm 17.0 5.9 -2.6 26 8.3 NW 46 67 25 36 1005.6 - 0.0
31/04:00pm 17.4 6.7 -2.3 26 8.5 NW 44 65 24 35 1006.4 1007.0 0.0
31/03:30pm 17.7 8.2 -1.0 28 8.2 NW 39 67 21 36 1006.4 - 0.0
31/03:00pm 18.0 9.4 0.2 30 8.1 WNW 35 48 19 26 1006.9 1007.4 0.0
31/02:30pm 17.9 7.4 -1.3 27 8.4 WNW 44 61 24 33 1007.1 - 0.0
31/02:00pm 17.7 6.3 -2.0 26 8.5 WNW 48 78 26 42 1007.3 1007.9 0.0
31/01:30pm 17.9 9.3 0.1 30 8.0 WNW 35 56 19 30 1008.0 - 0.0
31/01:00pm 17.5 8.0 -0.7 29 8.1 NW 39 61 21 33 1008.5 1009.1 0.0
31/12:30pm 17.5 8.0 -0.7 29 8.1 WNW 39 54 21 29 1009.3 - 0.0
31/12:00pm 17.1 7.2 -1.1 29 8.0 NW 41 65 22 35 1010.1 1010.7 0.0
31/11:30am 16.5 7.0 -1.1 30 7.7 WNW 39 65 21 35 1010.9 - 0.0
31/11:00am 16.1 6.8 0.3 34 7.1 WNW 39 61 21 33 1011.8 1012.4 0.0
31/10:30am 15.5 6.7 1.3 38 6.4 WNW 37 61 20 33 1012.1 - 0.0
31/10:00am 15.1 7.3 1.6 40 6.1 WNW 32 48 17 26 1012.5 1013.2 0.0
31/09:30am 14.3 6.1 0.2 38 6.2 WNW 33 48 18 26 1012.8 - 0.0
31/09:00am 13.6 6.4 0.9 42 5.6 WNW 28 44 15 24 1013.4 1014.1 0.0
31/08:30am 12.8 4.9 0.9 44 5.2 NW 32 46 17 25 1013.3 - 0.0
31/08:00am 12.1 5.3 1.1 47 4.8 NW 26 39 14 21 1013.5 1014.2 0.0
31/07:30am 11.5 4.8 1.5 50 4.4 NW 26 33 14 18 1013.4 - 0.0
31/07:00am 10.7 4.8 1.8 54 3.9 WNW 22 32 12 17 1013.5 1014.2 0.0
31/06:30am 10.4 4.5 2.0 56 3.7 WNW 22 32 12 17 1013.6 - 0.0
31/06:00am 10.7 4.9 2.3 56 3.7 WNW 22 32 12 17 1013.6 1014.3 0.0
31/05:30am 10.4 5.6 2.7 59 3.4 NW 17 24 9 13 1013.8 - 0.0
31/05:00am 9.2 5.3 3.4 67 2.6 NNW 13 17 7 9 1014.0 1014.7 0.0
31/04:30am 9.0 4.7 3.4 68 2.5 N 15 19 8 10 1014.1 - 0.0
31/04:00am 9.2 4.6 3.6 68 2.5 N 17 20 9 11 1014.5 1015.3 0.0
31/03:30am 10.1 5.5 3.8 65 2.9 NNW 17 22 9 12 1014.8 - 0.0
31/03:00am 11.0 5.9 4.2 63 3.2 WNW 20 26 11 14 1015.2 1015.9 0.0
31/02:30am 11.5 0.4 4.5 62 3.3 W 52 67 28 36 1013.4 - 0.0
31/02:00am 11.2 1.9 4.9 65 3.0 W 43 57 23 31 1014.4 1015.1 0.0
31/01:30am 11.7 3.2 5.1 64 3.1 W 39 74 21 40 1013.7 - 0.0
31/01:00am 11.0 3.7 5.3 68 2.7 W 33 48 18 26 1014.3 1015.0 0.0
31/12:30am 10.7 3.6 5.5 70 2.5 W 32 44 17 24 1015.1 - 0.0
31/12:00am 10.9 5.8 6.1 72 2.3 W 22 35 12 19 1015.5 1016.2 0.0
 
Date/Time
EST
Temp
°C
App
Temp
°C
Dew
Point
Rel
Hum
%
Delta-T
°C
Wind Press
QNH
hPa
Press
MSL
hPa
Rain
since 9 am
mm
Dir
 
Spd
km/h
Gust
km/h
Spd
kts
Gust
kts
30/11:30pm 10.8 5.7 6.0 72 2.3 W 22 32 12 17 1015.9 - 0.0
30/11:00pm 11.1 5.2 6.0 71 2.5 W 26 39 14 21 1016.3 1017.0 0.0
30/10:30pm 10.9 5.8 6.1 72 2.3 W 22 37 12 20 1016.5 - 0.0
30/10:00pm 10.8 5.7 6.0 72 2.3 W 22 30 12 16 1016.6 1017.3 0.0
30/09:30pm 11.0 5.7 6.6 74 2.2 W 24 39 13 21 1016.7 - 0.0
30/09:00pm 11.0 5.2 6.4 73 2.2 WNW 26 41 14 22 1016.7 1017.4 0.0
30/08:30pm 10.9 6.3 6.3 73 2.2 WNW 20 33 11 18 1016.9 - 0.0
30/08:00pm 11.2 6.6 6.5 73 2.3 W 20 33 11 18 1017.1 1017.9 0.0
30/07:30pm 11.4 6.8 6.5 72 2.4 W 20 33 11 18 1017.3 - 0.0
30/07:00pm 11.4 6.8 6.3 71 2.5 W 20 35 11 19 1017.2 1018.0 0.0
30/06:30pm 11.7 6.3 6.2 69 2.7 W 24 37 13 20 1016.9 - 0.0
30/06:00pm 11.9 7.2 6.0 67 2.9 W 20 35 11 19 1016.7 1017.4 0.0
30/05:30pm 12.3 6.4 5.9 65 3.1 W 26 39 14 21 1016.4 - 0.0
30/05:00pm 12.5 5.4 5.7 63 3.3 W 32 46 17 25 1015.8 1016.6 0.0
30/04:30pm 13.2 4.9 5.9 61 3.6 W 39 59 21 32 1015.7 - 0.0
30/04:00pm 13.4 6.2 5.8 60 3.7 W 33 52 18 28 1015.4 1016.1 0.0
30/03:30pm 13.5 5.2 5.9 60 3.7 W 39 61 21 33 1015.1 - 0.0
30/03:00pm 14.3 6.8 6.2 58 4.0 W 35 54 19 29 1015.1 1015.8 0.0
30/02:30pm 14.3 6.6 5.4 55 4.4 W 35 54 19 29 1015.5 - 0.0
30/02:00pm - - - - - W 52 70 28 38 1014.9 1015.6 0.0
30/01:30pm - - - - - W 37 61 20 33 1015.7 - 0.0
30/01:00pm 15.0 8.9 6.8 58 4.1 W 28 46 15 25 1015.9 1016.7 0.0
30/12:30pm 13.9 6.4 6.3 60 3.8 W 35 52 19 28 1016.3 - 0.0
30/12:00pm 14.2 6.0 6.6 60 3.8 W 39 57 21 31 1016.5 1017.2 0.0
30/11:30am 14.0 5.9 6.8 62 3.6 W 39 63 21 34 1016.9 - 0.0
30/11:00am 14.0 4.8 6.4 60 3.8 W 44 69 24 37 1017.1 1017.9 0.0
30/10:30am 13.8 5.7 6.9 63 3.5 W 39 56 21 30 1017.1 - 0.0
30/10:00am 13.1 5.3 6.5 64 3.3 W 37 57 20 31 1016.8 1017.5 0.0
30/09:30am 12.4 6.4 7.1 70 2.7 W 28 44 15 24 1017.3 - 0.0
30/09:00am 11.6 2.7 6.7 72 2.4 W 43 67 23 36 1016.5 1017.2 0.0
30/08:30am 11.2 1.3 6.5 73 2.3 W 48 65 26 35 1015.9 - 0.0
30/08:00am 10.7 2.8 6.3 74 2.1 W 37 61 20 33 1016.7 1017.4 0.0
30/07:30am 10.2 3.0 5.8 74 2.1 W 33 46 18 25 1017.1 - 0.0
30/07:00am 9.8 3.1 5.4 74 2.1 W 30 43 16 23 1017.4 1018.2 0.0
30/06:30am 9.4 3.3 5.0 74 2.1 WSW 26 35 14 19 1017.5 - 0.0
30/06:00am 9.3 3.6 5.1 75 2.0 W 24 35 13 19 1017.2 1018.0 0.0
30/05:30am 9.4 3.0 5.0 74 2.1 WSW 28 39 15 21 1016.9 - 0.0
30/05:00am 9.6 3.2 5.0 73 2.2 WSW 28 39 15 21 1016.5 1017.2 0.0
30/04:30am 9.6 2.1 4.6 71 2.3 WSW 33 52 18 28 1016.0 - 0.0
30/04:00am 9.5 2.1 4.1 69 2.5 WSW 32 44 17 24 1016.0 1016.8 0.0
30/03:30am 9.8 2.4 3.8 66 2.7 WSW 32 44 17 24 1015.8 - 0.0
30/03:00am 10.1 2.4 3.2 62 3.1 WSW 33 46 18 25 1015.6 1016.3 0.0
30/02:30am 10.4 1.4 2.7 59 3.4 WSW 39 54 21 29 1015.3 - 0.0
30/02:00am 11.1 1.1 2.2 54 4.0 WSW 44 61 24 33 1014.9 1015.6 0.0
30/01:30am 11.3 1.8 1.5 51 4.3 WSW 41 61 22 33 1014.9 - 0.0
30/01:00am 11.4 2.6 1.6 51 4.3 WSW 37 52 20 28 1014.9 1015.6 0.0
30/12:30am 11.8 2.7 1.7 50 4.5 WSW 39 54 21 29 1015.2 - 0.0
30/12:00am 12.3 1.9 2.2 50 4.5 WSW 46 69 25 37 1014.6 1015.4 0.0
 
Date/Time
EST
Temp
°C
App
Temp
°C
Dew
Point
Rel
Hum
%
Delta-T
°C
Wind Press
QNH
hPa
Press
MSL
hPa
Rain
since 9 am
mm
Dir
 
Spd
km/h
Gust
km/h
Spd
kts
Gust
kts
29/11:30pm 12.6 2.6 2.2 49 4.7 W 44 67 24 36 1014.4 - 0.0
29/11:00pm 12.7 2.0 2.3 49 4.7 W 48 67 26 36 1014.0 1014.7 0.0
29/10:30pm 12.7 1.6 2.3 49 4.7 W 50 74 27 40 1013.9 - 0.0
29/10:00pm 12.9 3.0 2.5 49 4.7 W 44 72 24 39 1013.6 1014.3 0.0
29/09:30pm 12.7 3.3 2.3 49 4.7 W 41 59 22 32 1014.1 - 0.0
29/09:00pm 12.7 3.3 2.3 49 4.7 W 41 65 22 35 1014.2 1014.9 0.0
29/08:30pm 12.7 3.3 2.3 49 4.7 W 41 57 22 31 1014.5 - 0.0
29/08:00pm 12.7 4.4 2.0 48 4.8 W 35 56 19 30 1014.9 1015.6 0.0
29/07:30pm 12.6 4.3 2.2 49 4.7 W 35 56 19 30 1015.1 - 0.0
29/07:00pm 12.7 5.8 2.3 49 4.7 W 28 46 15 25 1015.1 1015.8 0.0
29/06:30pm 12.5 5.5 2.1 49 4.7 W 28 44 15 24 1015.2 - 0.0
29/06:00pm 13.0 5.2 2.0 47 5.0 W 32 57 17 31 1014.8 1015.5 0.0
29/05:30pm 13.3 4.7 2.5 48 4.9 W 37 54 20 29 1014.5 - 0.0
29/05:00pm 13.7 3.8 1.4 43 5.5 W 43 69 23 37 1014.1 1014.8 0.0
29/04:30pm 14.4 4.3 0.3 38 6.2 W 43 59 23 32 1013.9 - 0.0
29/04:00pm 15.0 5.2 0.1 36 6.6 W 41 57 22 31 1013.9 1014.6 0.0
29/03:30pm 15.3 4.9 -0.1 35 6.8 W 44 61 24 33 1014.0 - 0.0
29/03:00pm 15.9 6.5 0.1 34 7.0 W 39 63 21 34 1014.3 1015.0 0.0
29/02:30pm 15.9 5.4 -0.8 32 7.3 W 44 70 24 38 1013.0 - 0.0
29/02:00pm 16.2 6.5 0.3 34 7.1 W 41 65 22 35 1012.8 1013.5 0.0
29/01:30pm 16.3 6.5 -0.4 32 7.4 W 41 72 22 39 1013.3 - 0.0
29/01:00pm 15.9 4.4 -0.3 33 7.1 W 50 69 27 37 1013.7 1014.4 0.0
29/12:30pm 15.7 5.4 0.3 35 6.9 W 44 69 24 37 1014.6 - 0.0
29/12:00pm 15.0 4.0 0.4 37 6.5 W 48 70 26 38 1015.1 1015.8 0.0

Other Formats:

Comma delimited format used in spreadsheet applications
http://www.bom.gov.au/fwo/IDN60801/IDN60801.94746.axf

JavaScript Object Notation format (JSON) in row-major order
http://www.bom.gov.au/fwo/IDN60801/IDN60801.94746.json